sensor_id;sensor_type;location;lat;lon;timestamp;P1;durP1;ratioP1;P2;durP2;ratioP2
59424;SDS011;45231;44.826;20.312;2023-03-13T00:01:45;60.55;;;40.10;;
59424;SDS011;45231;44.826;20.312;2023-03-13T00:04:11;56.17;;;35.13;;
59424;SDS011;45231;44.826;20.312;2023-03-13T00:06:38;52.07;;;33.30;;
59424;SDS011;45231;44.826;20.312;2023-03-13T00:09:50;59.22;;;32.78;;
59424;SDS011;45231;44.826;20.312;2023-03-13T00:11:54;53.35;;;32.47;;
59424;SDS011;45231;44.826;20.312;2023-03-13T00:14:39;55.70;;;36.72;;
59424;SDS011;45231;44.826;20.312;2023-03-13T00:17:08;51.17;;;32.95;;
59424;SDS011;45231;44.826;20.312;2023-03-13T00:19:35;54.50;;;36.75;;
59424;SDS011;45231;44.826;20.312;2023-03-13T00:22:01;50.92;;;33.28;;
59424;SDS011;45231;44.826;20.312;2023-03-13T00:24:27;55.70;;;33.47;;
59424;SDS011;45231;44.826;20.312;2023-03-13T00:26:54;55.47;;;33.37;;
59424;SDS011;45231;44.826;20.312;2023-03-13T00:29:20;55.17;;;33.42;;
59424;SDS011;45231;44.826;20.312;2023-03-13T00:31:49;56.83;;;32.22;;
59424;SDS011;45231;44.826;20.312;2023-03-13T00:34:27;52.23;;;34.40;;
59424;SDS011;45231;44.826;20.312;2023-03-13T00:36:56;55.45;;;33.80;;
59424;SDS011;45231;44.826;20.312;2023-03-13T00:39:25;52.88;;;32.47;;
59424;SDS011;45231;44.826;20.312;2023-03-13T00:41:52;56.70;;;33.75;;
59424;SDS011;45231;44.826;20.312;2023-03-13T00:44:18;53.10;;;31.73;;
59424;SDS011;45231;44.826;20.312;2023-03-13T00:49:39;59.22;;;33.13;;
59424;SDS011;45231;44.826;20.312;2023-03-13T00:52:11;64.20;;;35.25;;
59424;SDS011;45231;44.826;20.312;2023-03-13T00:54:37;68.00;;;36.60;;
59424;SDS011;45231;44.826;20.312;2023-03-13T00:57:04;65.80;;;35.97;;
59424;SDS011;45231;44.826;20.312;2023-03-13T00:59:36;56.75;;;30.40;;
59424;SDS011;45231;44.826;20.312;2023-03-13T01:02:02;50.33;;;30.35;;
59424;SDS011;45231;44.826;20.312;2023-03-13T01:04:32;52.75;;;31.08;;
59424;SDS011;45231;44.826;20.312;2023-03-13T01:06:58;55.45;;;32.13;;
59424;SDS011;45231;44.826;20.312;2023-03-13T01:09:24;56.38;;;31.85;;
59424;SDS011;45231;44.826;20.312;2023-03-13T01:11:51;54.33;;;30.08;;
59424;SDS011;45231;44.826;20.312;2023-03-13T01:14:18;56.03;;;30.67;;
59424;SDS011;45231;44.826;20.312;2023-03-13T01:16:45;51.97;;;28.70;;
59424;SDS011;45231;44.826;20.312;2023-03-13T01:19:32;49.70;;;28.55;;
59424;SDS011;45231;44.826;20.312;2023-03-13T01:22:09;50.00;;;27.90;;
59424;SDS011;45231;44.826;20.312;2023-03-13T01:24:44;50.58;;;28.55;;
59424;SDS011;45231;44.826;20.312;2023-03-13T01:27:19;53.20;;;29.50;;
59424;SDS011;45231;44.826;20.312;2023-03-13T01:32:35;53.33;;;30.25;;
59424;SDS011;45231;44.826;20.312;2023-03-13T01:35:34;51.92;;;29.23;;
59424;SDS011;45231;44.826;20.312;2023-03-13T01:40:49;51.22;;;29.50;;
59424;SDS011;45231;44.826;20.312;2023-03-13T01:48:53;59.60;;;31.23;;
59424;SDS011;45231;44.826;20.312;2023-03-13T01:51:23;53.58;;;30.58;;
59424;SDS011;45231;44.826;20.312;2023-03-13T01:53:55;51.92;;;30.13;;
59424;SDS011;45231;44.826;20.312;2023-03-13T01:56:27;56.53;;;28.35;;
59424;SDS011;45231;44.826;20.312;2023-03-13T01:58:57;61.97;;;30.17;;
59424;SDS011;45231;44.826;20.312;2023-03-13T02:01:27;52.95;;;28.75;;
59424;SDS011;45231;44.826;20.312;2023-03-13T02:04:03;55.03;;;28.13;;
59424;SDS011;45231;44.826;20.312;2023-03-13T02:06:30;57.25;;;28.92;;
59424;SDS011;45231;44.826;20.312;2023-03-13T02:09:19;50.30;;;27.83;;
59424;SDS011;45231;44.826;20.312;2023-03-13T02:14:40;48.03;;;28.13;;
59424;SDS011;45231;44.826;20.312;2023-03-13T02:17:06;47.60;;;29.88;;
59424;SDS011;45231;44.826;20.312;2023-03-13T02:19:43;55.90;;;32.33;;
59424;SDS011;45231;44.826;20.312;2023-03-13T02:28:04;55.95;;;32.00;;
59424;SDS011;45231;44.826;20.312;2023-03-13T02:30:32;54.33;;;32.47;;
59424;SDS011;45231;44.826;20.312;2023-03-13T02:33:01;52.05;;;31.30;;
59424;SDS011;45231;44.826;20.312;2023-03-13T02:35:47;56.25;;;32.60;;
59424;SDS011;45231;44.826;20.312;2023-03-13T02:38:19;57.50;;;35.22;;
59424;SDS011;45231;44.826;20.312;2023-03-13T02:40:46;55.65;;;35.00;;
59424;SDS011;45231;44.826;20.312;2023-03-13T02:44:21;56.28;;;33.20;;
59424;SDS011;45231;44.826;20.312;2023-03-13T02:46:20;56.90;;;32.78;;
59424;SDS011;45231;44.826;20.312;2023-03-13T02:48:53;59.97;;;34.00;;
59424;SDS011;45231;44.826;20.312;2023-03-13T02:53:55;56.30;;;33.08;;
59424;SDS011;45231;44.826;20.312;2023-03-13T02:56:44;58.33;;;34.50;;
59424;SDS011;45231;44.826;20.312;2023-03-13T02:59:09;54.20;;;34.20;;
59424;SDS011;45231;44.826;20.312;2023-03-13T03:01:38;53.38;;;33.55;;
59424;SDS011;45231;44.826;20.312;2023-03-13T03:04:05;54.08;;;32.10;;
59424;SDS011;45231;44.826;20.312;2023-03-13T03:06:34;52.90;;;34.25;;
59424;SDS011;45231;44.826;20.312;2023-03-13T03:09:22;52.38;;;33.17;;
59424;SDS011;45231;44.826;20.312;2023-03-13T03:11:48;49.55;;;31.10;;
59424;SDS011;45231;44.826;20.312;2023-03-13T03:14:23;50.28;;;31.23;;
59424;SDS011;45231;44.826;20.312;2023-03-13T03:16:52;52.53;;;32.72;;
59424;SDS011;45231;44.826;20.312;2023-03-13T03:19:19;54.03;;;33.40;;
59424;SDS011;45231;44.826;20.312;2023-03-13T03:21:52;50.40;;;30.33;;
59424;SDS011;45231;44.826;20.312;2023-03-13T03:24:19;45.63;;;29.10;;
59424;SDS011;45231;44.826;20.312;2023-03-13T03:26:58;46.05;;;27.30;;
59424;SDS011;45231;44.826;20.312;2023-03-13T03:29:24;41.47;;;24.63;;
59424;SDS011;45231;44.826;20.312;2023-03-13T03:32:13;45.03;;;26.92;;
59424;SDS011;45231;44.826;20.312;2023-03-13T03:34:38;32.08;;;20.10;;
59424;SDS011;45231;44.826;20.312;2023-03-13T03:37:17;28.77;;;18.52;;
59424;SDS011;45231;44.826;20.312;2023-03-13T03:39:43;32.25;;;18.83;;
59424;SDS011;45231;44.826;20.312;2023-03-13T03:42:12;32.33;;;20.57;;
59424;SDS011;45231;44.826;20.312;2023-03-13T03:44:42;34.13;;;20.63;;
59424;SDS011;45231;44.826;20.312;2023-03-13T03:47:11;34.08;;;21.25;;
59424;SDS011;45231;44.826;20.312;2023-03-13T03:49:37;33.17;;;20.58;;
59424;SDS011;45231;44.826;20.312;2023-03-13T03:52:04;31.92;;;20.13;;
59424;SDS011;45231;44.826;20.312;2023-03-13T03:54:31;30.50;;;19.98;;
59424;SDS011;45231;44.826;20.312;2023-03-13T03:59:33;24.67;;;15.77;;
59424;SDS011;45231;44.826;20.312;2023-03-13T04:02:00;28.63;;;16.98;;
59424;SDS011;45231;44.826;20.312;2023-03-13T04:04:35;29.83;;;17.75;;
59424;SDS011;45231;44.826;20.312;2023-03-13T04:07:09;27.60;;;17.75;;
59424;SDS011;45231;44.826;20.312;2023-03-13T04:09:43;29.67;;;20.60;;
59424;SDS011;45231;44.826;20.312;2023-03-13T04:12:09;28.70;;;21.65;;
59424;SDS011;45231;44.826;20.312;2023-03-13T04:14:35;31.53;;;22.43;;
59424;SDS011;45231;44.826;20.312;2023-03-13T04:17:05;30.90;;;22.38;;
59424;SDS011;45231;44.826;20.312;2023-03-13T04:19:31;32.55;;;23.08;;
59424;SDS011;45231;44.826;20.312;2023-03-13T04:21:57;33.17;;;23.50;;
59424;SDS011;45231;44.826;20.312;2023-03-13T04:24:32;31.75;;;23.70;;
59424;SDS011;45231;44.826;20.312;2023-03-13T04:27:18;30.88;;;23.27;;
59424;SDS011;45231;44.826;20.312;2023-03-13T04:29:53;27.83;;;20.48;;
59424;SDS011;45231;44.826;20.312;2023-03-13T04:32:20;33.40;;;24.15;;
59424;SDS011;45231;44.826;20.312;2023-03-13T04:34:49;42.22;;;26.70;;
59424;SDS011;45231;44.826;20.312;2023-03-13T04:37:15;38.10;;;27.85;;
59424;SDS011;45231;44.826;20.312;2023-03-13T04:39:44;36.70;;;26.65;;
59424;SDS011;45231;44.826;20.312;2023-03-13T04:42:11;33.67;;;25.75;;
59424;SDS011;45231;44.826;20.312;2023-03-13T04:44:40;36.35;;;27.02;;
59424;SDS011;45231;44.826;20.312;2023-03-13T04:47:06;34.40;;;25.80;;
59424;SDS011;45231;44.826;20.312;2023-03-13T04:49:35;36.78;;;25.98;;
59424;SDS011;45231;44.826;20.312;2023-03-13T04:52:05;34.35;;;25.80;;
59424;SDS011;45231;44.826;20.312;2023-03-13T04:54:40;32.28;;;24.02;;
59424;SDS011;45231;44.826;20.312;2023-03-13T04:57:07;31.37;;;24.33;;
59424;SDS011;45231;44.826;20.312;2023-03-13T04:59:36;33.95;;;21.85;;
59424;SDS011;45231;44.826;20.312;2023-03-13T05:02:02;37.33;;;23.75;;
59424;SDS011;45231;44.826;20.312;2023-03-13T05:04:31;40.25;;;23.35;;
59424;SDS011;45231;44.826;20.312;2023-03-13T05:07:00;37.88;;;22.63;;
59424;SDS011;45231;44.826;20.312;2023-03-13T05:09:26;31.92;;;21.08;;
59424;SDS011;45231;44.826;20.312;2023-03-13T05:11:56;36.33;;;22.20;;
59424;SDS011;45231;44.826;20.312;2023-03-13T05:14:22;32.15;;;20.00;;
59424;SDS011;45231;44.826;20.312;2023-03-13T05:16:51;33.08;;;21.85;;
59424;SDS011;45231;44.826;20.312;2023-03-13T05:19:17;39.75;;;22.40;;
59424;SDS011;45231;44.826;20.312;2023-03-13T05:22:04;37.50;;;22.25;;
59424;SDS011;45231;44.826;20.312;2023-03-13T05:24:30;38.85;;;22.77;;
59424;SDS011;45231;44.826;20.312;2023-03-13T05:26:58;41.13;;;22.48;;
59424;SDS011;45231;44.826;20.312;2023-03-13T05:29:25;35.67;;;22.33;;
59424;SDS011;45231;44.826;20.312;2023-03-13T05:31:51;37.00;;;21.17;;
59424;SDS011;45231;44.826;20.312;2023-03-13T05:34:17;35.75;;;21.00;;
59424;SDS011;45231;44.826;20.312;2023-03-13T05:37:04;55.90;;;33.08;;
59424;SDS011;45231;44.826;20.312;2023-03-13T05:39:41;54.08;;;31.02;;
59424;SDS011;45231;44.826;20.312;2023-03-13T05:42:09;45.90;;;26.52;;
59424;SDS011;45231;44.826;20.312;2023-03-13T05:44:39;36.83;;;22.30;;
59424;SDS011;45231;44.826;20.312;2023-03-13T05:47:05;36.85;;;23.58;;
59424;SDS011;45231;44.826;20.312;2023-03-13T05:49:32;37.30;;;24.48;;
59424;SDS011;45231;44.826;20.312;2023-03-13T05:51:58;40.15;;;24.33;;
59424;SDS011;45231;44.826;20.312;2023-03-13T05:54:32;37.92;;;24.02;;
59424;SDS011;45231;44.826;20.312;2023-03-13T05:57:01;38.05;;;22.60;;
59424;SDS011;45231;44.826;20.312;2023-03-13T05:59:27;28.10;;;19.77;;
59424;SDS011;45231;44.826;20.312;2023-03-13T06:01:54;30.52;;;20.38;;
59424;SDS011;45231;44.826;20.312;2023-03-13T06:04:20;31.17;;;19.70;;
59424;SDS011;45231;44.826;20.312;2023-03-13T06:06:46;26.88;;;19.10;;
59424;SDS011;45231;44.826;20.312;2023-03-13T06:09:12;28.83;;;19.20;;
59424;SDS011;45231;44.826;20.312;2023-03-13T06:11:38;26.13;;;18.23;;
59424;SDS011;45231;44.826;20.312;2023-03-13T06:16:31;30.35;;;20.00;;
59424;SDS011;45231;44.826;20.312;2023-03-13T06:18:57;23.70;;;17.67;;
59424;SDS011;45231;44.826;20.312;2023-03-13T06:21:23;29.10;;;20.02;;
59424;SDS011;45231;44.826;20.312;2023-03-13T06:23:49;31.17;;;20.55;;
59424;SDS011;45231;44.826;20.312;2023-03-13T06:26:15;34.25;;;23.98;;
59424;SDS011;45231;44.826;20.312;2023-03-13T06:28:41;38.13;;;27.85;;
59424;SDS011;45231;44.826;20.312;2023-03-13T06:31:07;32.75;;;25.20;;
59424;SDS011;45231;44.826;20.312;2023-03-13T06:33:33;30.92;;;23.10;;
59424;SDS011;45231;44.826;20.312;2023-03-13T06:36:00;29.40;;;21.25;;
59424;SDS011;45231;44.826;20.312;2023-03-13T06:38:26;25.60;;;19.92;;
59424;SDS011;45231;44.826;20.312;2023-03-13T06:40:53;23.90;;;20.08;;
59424;SDS011;45231;44.826;20.312;2023-03-13T06:43:19;26.20;;;20.60;;
59424;SDS011;45231;44.826;20.312;2023-03-13T06:45:45;25.70;;;18.15;;
59424;SDS011;45231;44.826;20.312;2023-03-13T06:48:12;23.52;;;19.25;;
59424;SDS011;45231;44.826;20.312;2023-03-13T07:02:47;20.27;;;15.88;;
59424;SDS011;45231;44.826;20.312;2023-03-13T07:05:13;19.70;;;14.90;;
59424;SDS011;45231;44.826;20.312;2023-03-13T07:07:40;21.02;;;14.15;;
59424;SDS011;45231;44.826;20.312;2023-03-13T07:10:06;15.57;;;13.05;;
59424;SDS011;45231;44.826;20.312;2023-03-13T07:12:34;16.48;;;13.25;;
59424;SDS011;45231;44.826;20.312;2023-03-13T07:17:26;17.73;;;13.43;;
59424;SDS011;45231;44.826;20.312;2023-03-13T07:19:52;17.95;;;13.70;;
59424;SDS011;45231;44.826;20.312;2023-03-13T07:24:44;15.45;;;12.05;;
59424;SDS011;45231;44.826;20.312;2023-03-13T07:27:10;16.23;;;12.02;;
59424;SDS011;45231;44.826;20.312;2023-03-13T07:29:37;15.75;;;12.07;;
59424;SDS011;45231;44.826;20.312;2023-03-13T07:32:03;15.00;;;11.20;;
59424;SDS011;45231;44.826;20.312;2023-03-13T07:34:29;17.30;;;11.67;;
59424;SDS011;45231;44.826;20.312;2023-03-13T07:36:55;13.85;;;10.27;;
59424;SDS011;45231;44.826;20.312;2023-03-13T07:41:47;13.18;;;10.18;;
59424;SDS011;45231;44.826;20.312;2023-03-13T07:44:13;13.75;;;9.30;;
59424;SDS011;45231;44.826;20.312;2023-03-13T07:46:39;12.52;;;8.63;;
59424;SDS011;45231;44.826;20.312;2023-03-13T07:49:05;13.43;;;8.93;;
59424;SDS011;45231;44.826;20.312;2023-03-13T07:51:31;16.38;;;9.40;;
59424;SDS011;45231;44.826;20.312;2023-03-13T07:53:58;13.45;;;8.88;;
59424;SDS011;45231;44.826;20.312;2023-03-13T07:56:24;13.95;;;9.10;;
59424;SDS011;45231;44.826;20.312;2023-03-13T07:58:50;10.48;;;7.70;;
59424;SDS011;45231;44.826;20.312;2023-03-13T08:01:17;12.80;;;8.23;;
59424;SDS011;45231;44.826;20.312;2023-03-13T08:03:44;16.63;;;8.18;;
59424;SDS011;45231;44.826;20.312;2023-03-13T08:06:13;12.48;;;7.88;;
59424;SDS011;45231;44.826;20.312;2023-03-13T08:08:41;12.57;;;7.68;;
59424;SDS011;45231;44.826;20.312;2023-03-13T08:11:17;13.43;;;7.38;;
59424;SDS011;45231;44.826;20.312;2023-03-13T08:13:44;12.45;;;8.15;;
59424;SDS011;45231;44.826;20.312;2023-03-13T08:18:36;11.88;;;7.68;;
59424;SDS011;45231;44.826;20.312;2023-03-13T08:21:03;11.32;;;7.45;;
59424;SDS011;45231;44.826;20.312;2023-03-13T08:23:30;9.80;;;6.95;;
59424;SDS011;45231;44.826;20.312;2023-03-13T08:25:59;12.05;;;7.70;;
59424;SDS011;45231;44.826;20.312;2023-03-13T08:28:26;9.90;;;7.25;;
59424;SDS011;45231;44.826;20.312;2023-03-13T08:30:52;14.90;;;7.18;;
59424;SDS011;45231;44.826;20.312;2023-03-13T08:33:18;13.82;;;6.80;;
59424;SDS011;45231;44.826;20.312;2023-03-13T08:35:44;14.18;;;7.60;;
59424;SDS011;45231;44.826;20.312;2023-03-13T08:38:10;12.80;;;7.43;;
59424;SDS011;45231;44.826;20.312;2023-03-13T08:40:36;12.07;;;6.47;;
59424;SDS011;45231;44.826;20.312;2023-03-13T08:43:02;9.98;;;6.78;;
59424;SDS011;45231;44.826;20.312;2023-03-13T08:45:28;20.40;;;7.22;;
59424;SDS011;45231;44.826;20.312;2023-03-13T08:47:55;15.07;;;7.40;;
59424;SDS011;45231;44.826;20.312;2023-03-13T08:50:21;71.35;;;10.57;;
59424;SDS011;45231;44.826;20.312;2023-03-13T08:57:39;10.77;;;6.38;;
59424;SDS011;45231;44.826;20.312;2023-03-13T09:00:05;12.80;;;5.63;;
59424;SDS011;45231;44.826;20.312;2023-03-13T09:04:57;11.30;;;6.15;;
59424;SDS011;45231;44.826;20.312;2023-03-13T09:07:23;10.25;;;5.95;;
59424;SDS011;45231;44.826;20.312;2023-03-13T09:09:49;11.25;;;5.85;;
59424;SDS011;45231;44.826;20.312;2023-03-13T09:12:15;10.82;;;5.57;;
59424;SDS011;45231;44.826;20.312;2023-03-13T09:14:41;10.48;;;5.28;;
59424;SDS011;45231;44.826;20.312;2023-03-13T09:17:07;8.98;;;4.88;;
59424;SDS011;45231;44.826;20.312;2023-03-13T09:19:33;9.98;;;4.72;;
59424;SDS011;45231;44.826;20.312;2023-03-13T09:22:00;9.73;;;5.22;;
59424;SDS011;45231;44.826;20.312;2023-03-13T09:24:26;8.32;;;4.65;;
59424;SDS011;45231;44.826;20.312;2023-03-13T09:26:52;9.10;;;4.57;;
59424;SDS011;45231;44.826;20.312;2023-03-13T09:29:18;10.65;;;4.90;;
59424;SDS011;45231;44.826;20.312;2023-03-13T09:31:44;8.57;;;4.78;;
59424;SDS011;45231;44.826;20.312;2023-03-13T09:34:10;9.80;;;4.93;;
59424;SDS011;45231;44.826;20.312;2023-03-13T09:36:36;8.45;;;4.97;;
59424;SDS011;45231;44.826;20.312;2023-03-13T09:39:02;12.50;;;5.22;;
59424;SDS011;45231;44.826;20.312;2023-03-13T09:41:33;10.15;;;6.43;;
59424;SDS011;45231;44.826;20.312;2023-03-13T09:49:03;14.73;;;9.45;;
59424;SDS011;45231;44.826;20.312;2023-03-13T09:51:37;15.23;;;7.18;;
59424;SDS011;45231;44.826;20.312;2023-03-13T09:54:10;27.27;;;15.20;;
59424;SDS011;45231;44.826;20.312;2023-03-13T09:56:43;12.73;;;6.47;;
59424;SDS011;45231;44.826;20.312;2023-03-13T09:59:21;18.38;;;10.02;;
59424;SDS011;45231;44.826;20.312;2023-03-13T10:01:50;14.93;;;8.10;;
59424;SDS011;45231;44.826;20.312;2023-03-13T10:06:44;9.18;;;5.38;;
59424;SDS011;45231;44.826;20.312;2023-03-13T10:09:16;24.08;;;6.20;;
59424;SDS011;45231;44.826;20.312;2023-03-13T10:11:56;9.57;;;4.90;;
59424;SDS011;45231;44.826;20.312;2023-03-13T10:14:30;8.05;;;4.43;;
59424;SDS011;45231;44.826;20.312;2023-03-13T10:17:04;7.97;;;4.35;;
59424;SDS011;45231;44.826;20.312;2023-03-13T10:19:35;7.35;;;4.18;;
59424;SDS011;45231;44.826;20.312;2023-03-13T10:22:03;6.40;;;3.80;;
59424;SDS011;45231;44.826;20.312;2023-03-13T10:24:44;26.65;;;5.25;;
59424;SDS011;45231;44.826;20.312;2023-03-13T10:27:13;10.00;;;5.30;;
59424;SDS011;45231;44.826;20.312;2023-03-13T10:29:39;8.20;;;4.53;;
59424;SDS011;45231;44.826;20.312;2023-03-13T10:32:06;7.43;;;4.13;;
59424;SDS011;45231;44.826;20.312;2023-03-13T10:34:54;7.95;;;3.80;;
59424;SDS011;45231;44.826;20.312;2023-03-13T10:39:46;9.65;;;4.20;;
59424;SDS011;45231;44.826;20.312;2023-03-13T10:42:23;7.90;;;3.97;;
59424;SDS011;45231;44.826;20.312;2023-03-13T10:44:55;11.63;;;4.68;;
59424;SDS011;45231;44.826;20.312;2023-03-13T10:47:23;8.02;;;3.88;;
59424;SDS011;45231;44.826;20.312;2023-03-13T10:49:50;7.60;;;3.55;;
59424;SDS011;45231;44.826;20.312;2023-03-13T10:55:01;9.55;;;3.72;;
59424;SDS011;45231;44.826;20.312;2023-03-13T10:57:32;8.75;;;3.97;;
59424;SDS011;45231;44.826;20.312;2023-03-13T10:59:59;7.63;;;3.97;;
59424;SDS011;45231;44.826;20.312;2023-03-13T11:02:35;6.63;;;3.03;;
59424;SDS011;45231;44.826;20.312;2023-03-13T11:05:20;12.40;;;3.85;;
59424;SDS011;45231;44.826;20.312;2023-03-13T11:07:52;8.75;;;3.20;;
59424;SDS011;45231;44.826;20.312;2023-03-13T11:12:45;9.07;;;3.08;;
59424;SDS011;45231;44.826;20.312;2023-03-13T11:15:12;5.97;;;2.72;;
59424;SDS011;45231;44.826;20.312;2023-03-13T11:17:40;5.63;;;2.33;;
59424;SDS011;45231;44.826;20.312;2023-03-13T11:20:27;5.18;;;2.45;;
59424;SDS011;45231;44.826;20.312;2023-03-13T11:25:49;5.53;;;2.50;;
59424;SDS011;45231;44.826;20.312;2023-03-13T11:28:26;4.28;;;1.85;;
59424;SDS011;45231;44.826;20.312;2023-03-13T11:33:27;9.40;;;2.78;;
59424;SDS011;45231;44.826;20.312;2023-03-13T11:38:28;4.85;;;2.30;;
59424;SDS011;45231;44.826;20.312;2023-03-13T11:51:22;4.93;;;2.08;;
59424;SDS011;45231;44.826;20.312;2023-03-13T11:56:42;4.15;;;1.65;;
59424;SDS011;45231;44.826;20.312;2023-03-13T11:59:21;3.15;;;1.50;;
59424;SDS011;45231;44.826;20.312;2023-03-13T12:01:51;4.75;;;1.73;;
59424;SDS011;45231;44.826;20.312;2023-03-13T12:06:52;4.90;;;1.70;;
59424;SDS011;45231;44.826;20.312;2023-03-13T12:09:25;3.50;;;1.30;;
59424;SDS011;45231;44.826;20.312;2023-03-13T12:11:54;3.30;;;1.50;;
59424;SDS011;45231;44.826;20.312;2023-03-13T12:14:37;3.30;;;1.40;;
59424;SDS011;45231;44.826;20.312;2023-03-13T12:17:05;4.35;;;1.63;;
59424;SDS011;45231;44.826;20.312;2023-03-13T12:19:38;16.75;;;1.92;;
59424;SDS011;45231;44.826;20.312;2023-03-13T12:22:13;4.32;;;1.40;;
59424;SDS011;45231;44.826;20.312;2023-03-13T12:24:44;6.97;;;1.70;;
59424;SDS011;45231;44.826;20.312;2023-03-13T12:32:24;3.90;;;1.33;;
59424;SDS011;45231;44.826;20.312;2023-03-13T12:42:57;4.22;;;1.67;;
59424;SDS011;45231;44.826;20.312;2023-03-13T12:45:24;3.13;;;1.45;;
59424;SDS011;45231;44.826;20.312;2023-03-13T12:55:36;4.45;;;1.70;;
59424;SDS011;45231;44.826;20.312;2023-03-13T13:00:49;6.00;;;1.92;;
59424;SDS011;45231;44.826;20.312;2023-03-13T13:03:32;5.05;;;1.77;;
59424;SDS011;45231;44.826;20.312;2023-03-13T13:08:39;3.47;;;1.40;;
59424;SDS011;45231;44.826;20.312;2023-03-13T13:16:50;4.15;;;1.50;;
59424;SDS011;45231;44.826;20.312;2023-03-13T13:24:48;5.95;;;2.10;;
59424;SDS011;45231;44.826;20.312;2023-03-13T13:28:02;7.28;;;2.10;;
59424;SDS011;45231;44.826;20.312;2023-03-13T13:32:43;5.05;;;1.75;;
59424;SDS011;45231;44.826;20.312;2023-03-13T13:37:45;3.85;;;1.50;;
59424;SDS011;45231;44.826;20.312;2023-03-13T13:47:39;6.70;;;2.08;;
59424;SDS011;45231;44.826;20.312;2023-03-13T13:50:25;4.97;;;2.03;;
59424;SDS011;45231;44.826;20.312;2023-03-13T13:52:51;5.43;;;2.05;;
59424;SDS011;45231;44.826;20.312;2023-03-13T13:57:47;5.82;;;1.98;;
59424;SDS011;45231;44.826;20.312;2023-03-13T14:00:21;4.70;;;1.92;;
59424;SDS011;45231;44.826;20.312;2023-03-13T14:02:49;4.53;;;1.80;;
59424;SDS011;45231;44.826;20.312;2023-03-13T14:05:23;6.55;;;2.10;;
59424;SDS011;45231;44.826;20.312;2023-03-13T14:07:59;6.85;;;2.45;;
59424;SDS011;45231;44.826;20.312;2023-03-13T14:13:13;7.50;;;2.33;;
59424;SDS011;45231;44.826;20.312;2023-03-13T14:15:40;12.13;;;3.35;;
59424;SDS011;45231;44.826;20.312;2023-03-13T14:18:12;7.45;;;3.10;;
59424;SDS011;45231;44.826;20.312;2023-03-13T14:21:01;7.60;;;2.88;;
59424;SDS011;45231;44.826;20.312;2023-03-13T14:23:42;6.47;;;2.97;;
59424;SDS011;45231;44.826;20.312;2023-03-13T14:26:10;8.85;;;3.95;;
59424;SDS011;45231;44.826;20.312;2023-03-13T14:28:37;10.38;;;3.50;;
59424;SDS011;45231;44.826;20.312;2023-03-13T14:31:05;18.08;;;5.63;;
59424;SDS011;45231;44.826;20.312;2023-03-13T14:33:31;6.38;;;2.78;;
59424;SDS011;45231;44.826;20.312;2023-03-13T14:35:57;7.65;;;2.95;;
59424;SDS011;45231;44.826;20.312;2023-03-13T14:38:24;10.90;;;3.35;;
59424;SDS011;45231;44.826;20.312;2023-03-13T14:40:51;7.57;;;3.10;;
59424;SDS011;45231;44.826;20.312;2023-03-13T14:45:43;6.00;;;3.03;;
59424;SDS011;45231;44.826;20.312;2023-03-13T14:50:45;8.18;;;3.10;;
59424;SDS011;45231;44.826;20.312;2023-03-13T14:53:21;8.38;;;3.05;;
59424;SDS011;45231;44.826;20.312;2023-03-13T14:55:47;6.05;;;3.00;;
59424;SDS011;45231;44.826;20.312;2023-03-13T14:58:27;8.57;;;3.17;;
59424;SDS011;45231;44.826;20.312;2023-03-13T15:00:54;6.60;;;2.92;;
59424;SDS011;45231;44.826;20.312;2023-03-13T15:03:21;10.68;;;2.95;;
59424;SDS011;45231;44.826;20.312;2023-03-13T15:06:00;6.60;;;2.70;;
59424;SDS011;45231;44.826;20.312;2023-03-13T15:08:27;6.05;;;2.90;;
59424;SDS011;45231;44.826;20.312;2023-03-13T15:10:54;8.00;;;3.67;;
59424;SDS011;45231;44.826;20.312;2023-03-13T15:15:47;7.55;;;3.17;;
59424;SDS011;45231;44.826;20.312;2023-03-13T15:20:43;7.28;;;3.05;;
59424;SDS011;45231;44.826;20.312;2023-03-13T15:23:10;7.13;;;3.20;;
59424;SDS011;45231;44.826;20.312;2023-03-13T15:25:39;7.75;;;3.63;;
59424;SDS011;45231;44.826;20.312;2023-03-13T15:28:15;8.23;;;3.60;;
59424;SDS011;45231;44.826;20.312;2023-03-13T15:30:42;8.63;;;3.30;;
59424;SDS011;45231;44.826;20.312;2023-03-13T15:33:16;7.78;;;3.20;;
59424;SDS011;45231;44.826;20.312;2023-03-13T15:35:42;6.50;;;3.40;;
59424;SDS011;45231;44.826;20.312;2023-03-13T15:40:41;7.88;;;4.00;;
59424;SDS011;45231;44.826;20.312;2023-03-13T15:43:07;9.30;;;3.85;;
59424;SDS011;45231;44.826;20.312;2023-03-13T15:45:33;8.07;;;4.20;;
59424;SDS011;45231;44.826;20.312;2023-03-13T15:48:00;10.32;;;4.65;;
59424;SDS011;45231;44.826;20.312;2023-03-13T15:50:27;11.50;;;4.70;;
59424;SDS011;45231;44.826;20.312;2023-03-13T15:52:56;11.32;;;4.95;;
59424;SDS011;45231;44.826;20.312;2023-03-13T15:55:25;11.00;;;4.70;;
59424;SDS011;45231;44.826;20.312;2023-03-13T15:57:52;10.68;;;5.32;;
59424;SDS011;45231;44.826;20.312;2023-03-13T16:00:22;14.75;;;4.50;;
59424;SDS011;45231;44.826;20.312;2023-03-13T16:02:49;11.40;;;4.40;;
59424;SDS011;45231;44.826;20.312;2023-03-13T16:05:15;8.30;;;4.30;;
59424;SDS011;45231;44.826;20.312;2023-03-13T16:07:41;11.27;;;5.20;;
59424;SDS011;45231;44.826;20.312;2023-03-13T16:10:18;18.02;;;5.70;;
59424;SDS011;45231;44.826;20.312;2023-03-13T16:12:44;15.20;;;5.40;;
59424;SDS011;45231;44.826;20.312;2023-03-13T16:15:10;11.82;;;6.30;;
59424;SDS011;45231;44.826;20.312;2023-03-13T16:17:36;12.35;;;6.32;;
59424;SDS011;45231;44.826;20.312;2023-03-13T16:20:03;12.20;;;6.28;;
59424;SDS011;45231;44.826;20.312;2023-03-13T16:22:34;15.52;;;6.70;;
59424;SDS011;45231;44.826;20.312;2023-03-13T16:25:00;13.20;;;7.47;;
59424;SDS011;45231;44.826;20.312;2023-03-13T16:27:26;12.73;;;7.57;;
59424;SDS011;45231;44.826;20.312;2023-03-13T16:29:53;15.18;;;8.30;;
59424;SDS011;45231;44.826;20.312;2023-03-13T16:32:19;15.17;;;8.33;;
59424;SDS011;45231;44.826;20.312;2023-03-13T16:34:48;16.45;;;9.70;;
59424;SDS011;45231;44.826;20.312;2023-03-13T16:37:15;18.70;;;10.30;;
59424;SDS011;45231;44.826;20.312;2023-03-13T16:39:42;17.55;;;10.98;;
59424;SDS011;45231;44.826;20.312;2023-03-13T16:44:35;21.45;;;12.40;;
59424;SDS011;45231;44.826;20.312;2023-03-13T16:47:01;21.25;;;12.30;;
59424;SDS011;45231;44.826;20.312;2023-03-13T16:49:27;24.45;;;12.50;;
59424;SDS011;45231;44.826;20.312;2023-03-13T16:51:53;20.67;;;11.57;;
59424;SDS011;45231;44.826;20.312;2023-03-13T16:54:19;21.80;;;11.20;;
59424;SDS011;45231;44.826;20.312;2023-03-13T16:56:45;24.52;;;12.13;;
59424;SDS011;45231;44.826;20.312;2023-03-13T16:59:13;23.10;;;12.35;;
59424;SDS011;45231;44.826;20.312;2023-03-13T17:01:40;28.58;;;12.13;;
59424;SDS011;45231;44.826;20.312;2023-03-13T17:04:06;22.75;;;10.98;;
59424;SDS011;45231;44.826;20.312;2023-03-13T17:06:33;20.95;;;10.88;;
59424;SDS011;45231;44.826;20.312;2023-03-13T17:09:00;21.27;;;10.45;;
59424;SDS011;45231;44.826;20.312;2023-03-13T17:11:27;18.38;;;10.10;;
59424;SDS011;45231;44.826;20.312;2023-03-13T17:13:54;20.02;;;10.10;;
59424;SDS011;45231;44.826;20.312;2023-03-13T17:16:23;18.03;;;9.00;;
59424;SDS011;45231;44.826;20.312;2023-03-13T17:18:50;19.88;;;9.73;;
59424;SDS011;45231;44.826;20.312;2023-03-13T17:21:21;18.08;;;10.10;;